createdAt,value
2018-08-04T00:01:25.396Z,21.40
2018-08-04T00:03:54.069Z,21.40
2018-08-04T00:06:22.542Z,21.30
2018-08-04T00:08:50.988Z,21.30
2018-08-04T00:11:19.436Z,21.20
2018-08-04T00:13:47.892Z,21.20
2018-08-04T00:18:44.499Z,20.90
2018-08-04T00:21:12.988Z,20.70
2018-08-04T00:23:41.456Z,20.60
2018-08-04T00:26:09.955Z,20.60
2018-08-04T00:28:38.413Z,20.70
2018-08-04T00:31:06.885Z,20.70
2018-08-04T00:33:35.333Z,20.60
2018-08-04T00:36:03.807Z,20.60
2018-08-04T00:38:32.257Z,20.50
2018-08-04T00:41:00.740Z,20.50
2018-08-04T00:43:29.181Z,20.30
2018-08-04T00:45:57.672Z,20.30
2018-08-04T00:48:26.112Z,20.20
2018-08-04T00:50:55.129Z,20.30
2018-08-04T00:53:23.549Z,20.30
2018-08-04T00:55:51.987Z,20.30
2018-08-04T00:58:20.438Z,20.30
2018-08-04T01:00:48.904Z,20.30
2018-08-04T01:03:17.576Z,20.30
2018-08-04T01:05:46.088Z,20.30
2018-08-04T01:08:14.597Z,20.20
2018-08-04T01:10:43.029Z,20.20
2018-08-04T01:13:11.497Z,20.20
2018-08-04T01:18:08.105Z,20.10
2018-08-04T01:20:36.633Z,20.00
2018-08-04T01:23:05.028Z,20.00
2018-08-04T01:25:33.540Z,19.90
2018-08-04T01:28:01.972Z,19.90
2018-08-04T01:30:30.424Z,19.80
2018-08-04T01:32:58.877Z,19.80
2018-08-04T01:35:27.410Z,19.70
2018-08-04T01:37:55.847Z,19.60
2018-08-04T01:40:24.301Z,19.60
2018-08-04T01:42:52.716Z,19.60
2018-08-04T01:45:21.184Z,19.60
2018-08-04T01:50:17.761Z,19.70
2018-08-04T01:55:14.333Z,19.70
2018-08-04T01:57:42.812Z,19.70
2018-08-04T02:00:11.456Z,19.70
2018-08-04T02:02:39.930Z,19.70
2018-08-04T02:05:08.382Z,19.60
2018-08-04T02:07:36.816Z,19.60
2018-08-04T02:10:05.349Z,19.60
2018-08-04T02:12:33.800Z,19.60
2018-08-04T02:15:02.209Z,19.50
2018-08-04T02:17:30.723Z,19.50
2018-08-04T02:19:59.160Z,19.50
2018-08-04T02:22:27.592Z,19.50
2018-08-04T02:24:56.112Z,19.50
2018-08-04T02:27:24.556Z,19.50
2018-08-04T02:29:53.152Z,19.50
2018-08-04T02:32:21.603Z,19.50
2018-08-04T02:34:50.042Z,19.50
2018-08-04T02:37:18.520Z,19.40
2018-08-04T02:39:46.933Z,19.30
2018-08-04T02:42:15.370Z,19.00
2018-08-04T02:44:43.804Z,18.90
2018-08-04T02:47:12.233Z,18.80
2018-08-04T02:49:40.667Z,18.80
2018-08-04T02:52:09.202Z,18.70
2018-08-04T02:54:37.609Z,18.70
2018-08-04T02:57:06.097Z,18.80
2018-08-04T02:59:34.544Z,18.80
2018-08-04T03:02:03.005Z,18.80
2018-08-04T03:04:31.479Z,18.80
2018-08-04T03:06:59.930Z,18.80
2018-08-04T03:09:29.067Z,18.80
2018-08-04T03:11:57.512Z,18.90
2018-08-04T03:14:25.921Z,18.80
2018-08-04T03:16:54.406Z,18.90
2018-08-04T03:19:23.238Z,18.90
2018-08-04T03:21:51.718Z,18.90
2018-08-04T03:24:20.156Z,18.90
2018-08-04T03:26:48.611Z,18.90
2018-08-04T03:29:17.016Z,19.00
2018-08-04T03:31:45.416Z,19.00
2018-08-04T03:34:13.877Z,18.90
2018-08-04T03:36:42.288Z,19.00
2018-08-04T03:39:11.706Z,19.00
2018-08-04T03:41:41.085Z,19.00
2018-08-04T03:44:09.591Z,19.00
2018-08-04T03:46:38.364Z,19.00
2018-08-04T03:49:06.832Z,19.00
2018-08-04T03:51:35.242Z,18.90
2018-08-04T03:54:03.697Z,18.80
2018-08-04T03:56:32.121Z,18.80
2018-08-04T03:59:00.548Z,18.80
2018-08-04T04:03:57.092Z,18.90
2018-08-04T04:06:25.526Z,18.80
2018-08-04T04:08:53.986Z,18.80
2018-08-04T04:11:22.463Z,18.80
2018-08-04T04:13:51.168Z,18.80
2018-08-04T04:16:19.589Z,18.80
2018-08-04T04:21:16.172Z,18.70
2018-08-04T04:23:44.640Z,18.70
2018-08-04T04:26:13.074Z,18.60
2018-08-04T04:28:41.513Z,18.70
2018-08-04T04:31:09.931Z,18.80
2018-08-04T04:36:06.542Z,19.00
2018-08-04T04:38:35.190Z,19.10
2018-08-04T04:43:31.746Z,19.30
2018-08-04T04:46:00.177Z,19.40
2018-08-04T04:48:28.710Z,19.40
2018-08-04T04:50:57.374Z,19.50
2018-08-04T04:53:25.837Z,19.60
2018-08-04T04:58:22.520Z,19.70
2018-08-04T05:00:50.945Z,19.80
2018-08-04T05:03:19.553Z,19.90
2018-08-04T05:05:47.988Z,19.90
2018-08-04T05:08:16.509Z,20.00
2018-08-04T05:10:44.953Z,20.10
2018-08-04T05:13:13.419Z,20.20
2018-08-04T05:15:41.869Z,20.30
2018-08-04T05:18:10.326Z,20.30
2018-08-04T05:20:38.776Z,20.30
2018-08-04T05:23:07.217Z,20.30
2018-08-04T05:25:35.636Z,20.30
2018-08-04T05:30:32.225Z,20.20
2018-08-04T05:33:00.643Z,20.40
2018-08-04T05:35:29.220Z,20.40
2018-08-04T05:37:57.644Z,20.50
2018-08-04T05:40:26.092Z,20.60
2018-08-04T05:45:22.712Z,20.90
2018-08-04T05:47:51.112Z,21.10
2018-08-04T05:52:47.745Z,21.60
2018-08-04T05:55:16.195Z,21.80
2018-08-04T05:57:45.920Z,22.00
2018-08-04T06:00:14.398Z,22.20
2018-08-04T06:02:42.833Z,22.40
2018-08-04T06:05:11.287Z,22.60
2018-08-04T06:07:39.742Z,22.90
2018-08-04T06:10:08.220Z,23.10
2018-08-04T06:15:04.986Z,24.10
2018-08-04T06:17:33.556Z,24.30
2018-08-04T06:22:30.217Z,25.00
2018-08-04T06:24:58.662Z,25.60
2018-08-04T06:27:27.101Z,26.10
2018-08-04T06:29:55.544Z,26.10
2018-08-04T06:32:24.517Z,27.20
2018-08-04T06:34:53.005Z,27.60
2018-08-04T06:37:21.441Z,27.80
2018-08-04T06:39:49.985Z,29.50
2018-08-04T06:42:18.533Z,29.90
2018-08-04T06:44:47.003Z,30.50
2018-08-04T06:47:15.437Z,31.40
2018-08-04T06:49:43.879Z,33.30
2018-08-04T06:52:12.335Z,34.50
2018-08-04T06:54:40.789Z,35.10
2018-08-04T06:57:09.213Z,35.20
2018-08-04T06:59:37.775Z,34.10
2018-08-04T07:02:06.248Z,34.30
2018-08-04T07:04:34.697Z,34.80
2018-08-04T07:07:03.124Z,35.40
2018-08-04T07:09:31.520Z,35.90
2018-08-04T07:11:59.972Z,36.20
2018-08-04T07:14:28.428Z,36.80
2018-08-04T07:16:56.869Z,37.50
2018-08-04T07:19:25.368Z,38.50
2018-08-04T07:21:53.809Z,38.90
2018-08-04T07:24:22.279Z,39.00
2018-08-04T07:26:50.756Z,38.50
2018-08-04T07:29:19.207Z,38.70
2018-08-04T07:31:47.681Z,39.20
2018-08-04T07:34:16.123Z,39.40
2018-08-04T07:36:44.560Z,39.40
2018-08-04T07:41:41.147Z,37.30
2018-08-04T07:44:09.616Z,36.20
2018-08-04T07:46:38.276Z,35.10
2018-08-04T07:49:06.755Z,35.10
2018-08-04T07:51:35.181Z,35.20
2018-08-04T07:54:03.656Z,36.10
2018-08-04T07:56:32.189Z,36.70
2018-08-04T07:59:00.789Z,37.70
2018-08-04T08:01:29.232Z,38.00
2018-08-04T08:03:57.702Z,38.40
2018-08-04T08:06:26.144Z,39.10
2018-08-04T08:08:54.563Z,39.60
2018-08-04T08:11:23.199Z,40.70
2018-08-04T08:13:51.612Z,40.70
2018-08-04T08:16:20.051Z,42.60
2018-08-04T08:18:48.434Z,43.20
2018-08-04T08:21:16.919Z,42.80
2018-08-04T08:23:45.321Z,41.50
2018-08-04T08:26:14.697Z,41.00
2018-08-04T08:28:43.512Z,41.00
2018-08-04T08:31:12.005Z,42.60
2018-08-04T08:33:40.934Z,43.30
2018-08-04T08:36:10.208Z,43.10
2018-08-04T08:38:38.644Z,43.80
2018-08-04T08:41:07.137Z,43.50
2018-08-04T08:43:35.603Z,43.80
2018-08-04T08:46:04.062Z,43.60
2018-08-04T08:48:32.516Z,43.70
2018-08-04T08:51:00.944Z,44.00
2018-08-04T08:53:29.578Z,44.70
2018-08-04T08:55:57.889Z,44.00
2018-08-04T08:58:26.341Z,43.80
2018-08-04T09:00:54.768Z,42.90
2018-08-04T09:03:23.236Z,42.90
2018-08-04T09:05:51.649Z,42.80
2018-08-04T09:08:20.085Z,44.00
2018-08-04T09:13:16.649Z,46.40
2018-08-04T09:15:45.214Z,46.80
2018-08-04T09:18:13.703Z,47.00
2018-08-04T09:20:42.080Z,46.50
2018-08-04T09:23:10.616Z,46.30
2018-08-04T09:25:39.160Z,45.70
2018-08-04T09:28:07.664Z,45.70
2018-08-04T09:30:36.084Z,45.30
2018-08-04T09:33:04.557Z,45.90
2018-08-04T09:35:32.987Z,46.30
2018-08-04T09:38:01.418Z,46.60
2018-08-04T09:40:29.888Z,45.40
2018-08-04T09:45:26.592Z,44.20
2018-08-04T09:47:55.076Z,43.10
2018-08-04T09:50:23.464Z,42.60
2018-08-04T09:55:20.112Z,44.00
2018-08-04T09:57:48.589Z,44.40
2018-08-04T10:00:22.560Z,43.60
2018-08-04T10:02:51.186Z,43.20
2018-08-04T10:07:48.165Z,43.90
2018-08-04T10:10:16.852Z,44.40
2018-08-04T10:12:45.298Z,44.40
2018-08-04T10:15:13.707Z,43.20
2018-08-04T10:17:42.142Z,42.20
2018-08-04T10:20:11.779Z,42.10
2018-08-04T10:22:40.232Z,42.20
2018-08-04T10:25:09.039Z,42.00
2018-08-04T10:27:37.659Z,40.50
2018-08-04T10:30:08.505Z,39.90
2018-08-04T10:32:37.110Z,40.00
2018-08-04T10:35:05.944Z,39.50
2018-08-04T10:40:02.692Z,41.10
2018-08-04T10:42:31.114Z,41.00
2018-08-04T10:44:59.560Z,40.50
2018-08-04T10:47:27.965Z,40.70
2018-08-04T10:49:56.408Z,40.10
2018-08-04T10:52:24.813Z,39.40
2018-08-04T10:54:53.245Z,38.90
2018-08-04T10:59:49.981Z,37.00
2018-08-04T11:04:46.586Z,35.90
2018-08-04T11:07:15.053Z,35.10
2018-08-04T11:09:43.537Z,34.60
2018-08-04T11:12:12.117Z,34.00
2018-08-04T11:17:08.821Z,33.30
2018-08-04T11:19:37.298Z,33.00
2018-08-04T11:22:05.865Z,32.80
2018-08-04T11:24:34.448Z,32.60
2018-08-04T11:27:02.872Z,32.50
2018-08-04T11:29:31.562Z,32.50
2018-08-04T11:32:00.042Z,32.40
2018-08-04T11:34:28.589Z,32.60
2018-08-04T11:36:57.008Z,32.40
2018-08-04T11:39:25.472Z,32.50
2018-08-04T11:41:53.950Z,32.60
2018-08-04T11:44:22.388Z,32.60
2018-08-04T11:46:50.885Z,32.70
2018-08-04T11:49:19.324Z,32.80
2018-08-04T11:51:47.880Z,32.70
2018-08-04T11:54:16.329Z,32.70
2018-08-04T11:56:44.759Z,32.70
2018-08-04T11:59:13.204Z,32.60
2018-08-04T12:01:41.729Z,32.60
2018-08-04T12:04:10.170Z,32.50
2018-08-04T12:06:38.586Z,32.50
2018-08-04T12:09:09.986Z,32.60
2018-08-04T12:11:38.482Z,32.60
2018-08-04T12:14:07.420Z,32.60
2018-08-04T12:16:35.956Z,32.50
2018-08-04T12:19:04.882Z,32.50
2018-08-04T12:21:33.383Z,32.50
2018-08-04T12:24:01.878Z,32.40
2018-08-04T12:26:30.307Z,32.40
2018-08-04T12:28:58.824Z,32.40
2018-08-04T12:31:27.763Z,32.30
2018-08-04T12:33:56.150Z,32.20
2018-08-04T12:36:24.578Z,32.20
2018-08-04T12:38:52.996Z,32.10
2018-08-04T12:41:21.466Z,32.10
2018-08-04T12:43:49.968Z,32.10
2018-08-04T12:46:18.432Z,32.10
2018-08-04T12:51:15.041Z,32.10
2018-08-04T12:53:43.437Z,32.10
2018-08-04T12:56:11.859Z,31.80
2018-08-04T12:58:40.270Z,31.80
2018-08-04T13:01:08.752Z,31.80
2018-08-04T13:03:37.195Z,31.80
2018-08-04T13:06:05.872Z,31.90
2018-08-04T13:08:34.309Z,32.10
2018-08-04T13:11:02.785Z,32.20
2018-08-04T13:13:31.226Z,32.20
2018-08-04T13:15:59.958Z,32.10
2018-08-04T13:18:28.393Z,32.00
2018-08-04T13:20:56.852Z,31.90
2018-08-04T13:23:25.256Z,31.90
2018-08-04T13:25:53.708Z,32.00
2018-08-04T13:28:22.188Z,32.00
2018-08-04T13:30:50.652Z,32.10
2018-08-04T13:33:19.521Z,32.10
2018-08-04T13:35:48.013Z,32.10
2018-08-04T13:38:16.403Z,32.10
2018-08-04T13:40:44.856Z,32.10
2018-08-04T13:43:13.293Z,32.10
2018-08-04T13:45:41.739Z,32.10
2018-08-04T13:48:10.189Z,32.10
2018-08-04T13:50:38.700Z,32.10
2018-08-04T13:53:07.318Z,32.00
2018-08-04T13:58:03.957Z,32.00
2018-08-04T14:00:32.384Z,32.10
2018-08-04T14:03:00.813Z,32.00
2018-08-04T14:05:29.238Z,32.00
2018-08-04T14:07:57.900Z,32.10
2018-08-04T14:10:26.382Z,32.10
2018-08-04T14:12:54.836Z,32.10
2018-08-04T14:15:23.232Z,32.10
2018-08-04T14:22:47.898Z,31.80
2018-08-04T14:25:16.304Z,31.80
2018-08-04T14:27:44.797Z,31.80
2018-08-04T14:30:13.204Z,31.80
2018-08-04T14:32:41.635Z,31.80
2018-08-04T14:35:10.055Z,31.80
2018-08-04T14:37:38.544Z,31.80
2018-08-04T14:40:07.042Z,31.90
2018-08-04T14:42:35.580Z,32.00
2018-08-04T14:45:04.118Z,32.10
2018-08-04T14:47:32.704Z,32.20
2018-08-04T14:50:01.114Z,32.20
2018-08-04T14:54:57.716Z,32.40
2018-08-04T14:57:26.165Z,32.50
2018-08-04T14:59:54.573Z,32.60
2018-08-04T15:02:22.992Z,32.60
2018-08-04T15:04:51.451Z,32.50
2018-08-04T15:07:19.849Z,32.30
2018-08-04T15:09:48.258Z,32.30
2018-08-04T15:12:16.709Z,32.40
2018-08-04T15:14:45.192Z,32.40
2018-08-04T15:17:13.682Z,32.30
2018-08-04T15:19:42.072Z,32.20
2018-08-04T15:22:10.553Z,32.20
2018-08-04T15:24:38.999Z,32.20
2018-08-04T15:27:07.452Z,32.10
2018-08-04T15:32:04.077Z,32.10
2018-08-04T15:34:32.513Z,32.00
2018-08-04T15:37:00.998Z,31.90
2018-08-04T15:39:29.450Z,31.80
2018-08-04T15:41:57.980Z,31.80
2018-08-04T15:44:26.394Z,31.60
2018-08-04T15:46:54.923Z,31.60
2018-08-04T15:49:23.337Z,31.60
2018-08-04T15:51:51.772Z,31.50
2018-08-04T15:54:20.296Z,31.50
2018-08-04T15:56:48.760Z,31.30
2018-08-04T15:59:17.229Z,31.30
2018-08-04T16:01:45.644Z,31.40
2018-08-04T16:04:14.110Z,31.40
2018-08-04T16:06:42.649Z,31.50
2018-08-04T16:09:12.046Z,31.50
2018-08-04T16:11:41.423Z,31.50
2018-08-04T16:14:10.604Z,31.50
2018-08-04T16:16:42.053Z,31.50
2018-08-04T16:19:10.603Z,31.40
2018-08-04T16:21:38.997Z,31.30
2018-08-04T16:24:07.474Z,31.20
2018-08-04T16:26:35.941Z,31.20
2018-08-04T16:29:04.460Z,31.20
2018-08-04T16:31:32.921Z,31.20
2018-08-04T16:34:01.362Z,31.20
2018-08-04T16:36:29.817Z,31.30
2018-08-04T16:38:58.261Z,31.30
2018-08-04T16:41:26.703Z,31.40
2018-08-04T16:43:55.221Z,31.40
2018-08-04T16:46:23.653Z,31.30
2018-08-04T16:48:52.277Z,31.30
2018-08-04T16:51:20.701Z,31.30
2018-08-04T16:53:49.254Z,31.30
2018-08-04T16:56:17.689Z,31.20
2018-08-04T16:58:46.131Z,31.20
2018-08-04T17:01:14.547Z,31.10
2018-08-04T17:03:43.052Z,31.10
2018-08-04T17:06:11.507Z,31.10
2018-08-04T17:08:39.994Z,31.10
2018-08-04T17:11:08.429Z,31.00
2018-08-04T17:13:36.892Z,30.90
2018-08-04T17:16:05.386Z,30.80
2018-08-04T17:18:33.958Z,30.70
2018-08-04T17:23:30.628Z,30.40
2018-08-04T17:25:59.042Z,30.30
2018-08-04T17:28:27.462Z,30.30
2018-08-04T17:30:55.900Z,30.20
2018-08-04T17:33:24.336Z,30.20
2018-08-04T17:35:53.225Z,30.10
2018-08-04T17:38:21.753Z,30.00
2018-08-04T17:40:50.171Z,30.00
2018-08-04T17:43:18.612Z,29.90
2018-08-04T17:45:47.115Z,29.90
2018-08-04T17:48:15.612Z,29.80
2018-08-04T17:50:44.068Z,29.60
2018-08-04T17:53:12.524Z,29.60
2018-08-04T17:55:41.068Z,29.50
2018-08-04T17:58:09.554Z,29.40
2018-08-04T18:00:38.010Z,29.20
2018-08-04T18:05:34.641Z,28.90
2018-08-04T18:08:03.165Z,28.80
2018-08-04T18:10:31.660Z,28.70
2018-08-04T18:13:00.155Z,28.50
2018-08-04T18:15:28.829Z,28.40
2018-08-04T18:17:57.230Z,28.30
2018-08-04T18:20:25.695Z,28.20
2018-08-04T18:22:54.139Z,28.20
2018-08-04T18:25:22.621Z,28.10
2018-08-04T18:27:51.086Z,28.10
2018-08-04T18:30:19.557Z,28.10
2018-08-04T18:32:48.172Z,28.00
2018-08-04T18:35:16.705Z,28.00
2018-08-04T18:37:45.174Z,27.90
2018-08-04T18:40:13.597Z,27.90
2018-08-04T18:42:42.027Z,27.80
2018-08-04T18:45:10.267Z,27.80
2018-08-04T18:47:38.800Z,27.70
2018-08-04T18:50:07.354Z,27.70
2018-08-04T18:52:36.022Z,27.60
2018-08-04T18:55:04.653Z,27.50
2018-08-04T18:57:33.121Z,27.50
2018-08-04T19:00:01.612Z,27.40
2018-08-04T19:02:30.232Z,27.20
2018-08-04T19:04:58.713Z,27.10
2018-08-04T19:09:55.322Z,26.90
2018-08-04T19:12:23.733Z,26.80
2018-08-04T19:14:52.182Z,26.70
2018-08-04T19:17:20.572Z,26.60
2018-08-04T19:19:49.037Z,26.50
2018-08-04T19:22:17.499Z,26.40
2018-08-04T19:24:45.898Z,26.30
2018-08-04T19:27:14.349Z,26.20
2018-08-04T19:29:42.738Z,26.20
2018-08-04T19:32:11.276Z,26.10
2018-08-04T19:34:39.749Z,26.10
2018-08-04T19:37:08.325Z,26.00
2018-08-04T19:39:36.760Z,26.00
2018-08-04T19:42:05.220Z,25.90
2018-08-04T19:44:33.704Z,25.80
2018-08-04T19:47:02.158Z,25.80
2018-08-04T19:51:58.736Z,25.80
2018-08-04T19:56:56.321Z,25.70
2018-08-04T19:59:24.795Z,25.70
2018-08-04T20:01:53.233Z,25.70
2018-08-04T20:04:21.701Z,25.60
2018-08-04T20:09:18.234Z,25.50
2018-08-04T20:11:46.669Z,25.40
2018-08-04T20:14:15.103Z,25.40
2018-08-04T20:16:43.545Z,25.30
2018-08-04T20:19:11.979Z,25.30
2018-08-04T20:21:40.569Z,25.20
2018-08-04T20:24:08.993Z,25.10
2018-08-04T20:26:38.596Z,25.10
2018-08-04T20:29:07.043Z,25.00
2018-08-04T20:31:35.516Z,25.00
2018-08-04T20:34:03.980Z,24.90
2018-08-04T20:36:32.505Z,24.90
2018-08-04T20:39:00.994Z,24.90
2018-08-04T20:41:29.442Z,24.80
2018-08-04T20:43:57.880Z,24.80
2018-08-04T20:46:26.371Z,24.80
2018-08-04T20:48:54.925Z,24.70
2018-08-04T20:51:23.334Z,24.60
2018-08-04T20:53:51.787Z,24.60
2018-08-04T20:56:20.197Z,24.50
2018-08-04T20:58:48.645Z,24.40
2018-08-04T21:01:28.249Z,24.40
2018-08-04T21:03:56.697Z,24.30
2018-08-04T21:06:25.200Z,24.30
2018-08-04T21:08:53.682Z,24.30
2018-08-04T21:11:22.128Z,24.20
2018-08-04T21:13:50.593Z,24.10
2018-08-04T21:16:19.092Z,24.10
2018-08-04T21:18:47.549Z,24.00
2018-08-04T21:21:15.972Z,24.00
2018-08-04T21:23:44.417Z,24.00
2018-08-04T21:26:12.824Z,24.00
2018-08-04T21:28:41.256Z,23.90
2018-08-04T21:31:09.668Z,23.90
2018-08-04T21:33:38.231Z,23.90
2018-08-04T21:36:06.659Z,23.80
2018-08-04T21:38:35.137Z,23.80
2018-08-04T21:41:03.608Z,23.70
2018-08-04T21:46:00.452Z,23.70
2018-08-04T21:48:28.906Z,23.70
2018-08-04T21:50:57.372Z,23.60
2018-08-04T21:53:25.807Z,23.50
2018-08-04T21:55:54.207Z,23.50
2018-08-04T21:58:22.681Z,23.40
2018-08-04T22:00:56.281Z,23.30
2018-08-04T22:03:24.746Z,23.20
2018-08-04T22:05:53.237Z,23.20
2018-08-04T22:08:33.065Z,23.20
2018-08-04T22:11:02.054Z,23.30
2018-08-04T22:13:30.637Z,23.30
2018-08-04T22:15:59.073Z,23.30
2018-08-04T22:18:27.537Z,23.30
2018-08-04T22:20:56.045Z,23.30
2018-08-04T22:23:24.449Z,23.20
2018-08-04T22:25:52.965Z,23.20
2018-08-04T22:28:21.479Z,23.20
2018-08-04T22:33:18.205Z,23.20
2018-08-04T22:35:46.758Z,23.20
2018-08-04T22:38:15.157Z,23.20
2018-08-04T22:40:43.628Z,23.10
2018-08-04T22:43:12.070Z,23.10
2018-08-04T22:46:07.723Z,23.00
2018-08-04T22:48:36.164Z,22.90
2018-08-04T22:51:04.618Z,22.90
2018-08-04T22:53:33.077Z,22.80
2018-08-04T22:56:01.554Z,22.70
2018-08-04T22:58:30.000Z,22.70
2018-08-04T23:00:58.632Z,22.70
2018-08-04T23:03:27.124Z,22.70
2018-08-04T23:05:55.608Z,22.70
2018-08-04T23:08:24.119Z,22.60
2018-08-04T23:10:52.577Z,22.60
2018-08-04T23:13:21.045Z,22.50
2018-08-04T23:15:49.559Z,22.40
2018-08-04T23:18:18.017Z,22.20
2018-08-04T23:20:46.493Z,22.10
2018-08-04T23:23:14.912Z,21.90
2018-08-04T23:25:43.357Z,21.60
2018-08-04T23:28:11.770Z,21.30
2018-08-04T23:30:40.256Z,21.30
2018-08-04T23:33:08.687Z,21.40
2018-08-04T23:35:37.129Z,21.40
2018-08-04T23:38:05.546Z,21.50
2018-08-04T23:40:33.974Z,21.50
2018-08-04T23:45:31.540Z,21.50
2018-08-04T23:47:59.984Z,21.60
2018-08-04T23:50:28.461Z,21.60
2018-08-04T23:52:56.942Z,21.60
2018-08-04T23:55:25.404Z,21.60
2018-08-04T23:57:53.862Z,21.60
